sensor_id;sensor_type;location;lat;lon;timestamp;P1;durP1;ratioP1;P2;durP2;ratioP2
34134;SDS011;20410;55.578;12.968;2022-11-14T00:00:31;3.33;;;1.40;;
34134;SDS011;20410;55.578;12.968;2022-11-14T00:03:00;1.67;;;1.37;;
34134;SDS011;20410;55.578;12.968;2022-11-14T00:05:27;3.03;;;1.67;;
34134;SDS011;20410;55.578;12.968;2022-11-14T00:07:53;2.17;;;1.40;;
34134;SDS011;20410;55.578;12.968;2022-11-14T00:10:18;1.50;;;1.40;;
34134;SDS011;20410;55.578;12.968;2022-11-14T00:12:44;1.50;;;1.40;;
34134;SDS011;20410;55.578;12.968;2022-11-14T00:15:11;2.57;;;1.40;;
34134;SDS011;20410;55.578;12.968;2022-11-14T00:17:37;2.83;;;1.50;;
34134;SDS011;20410;55.578;12.968;2022-11-14T00:20:03;2.17;;;1.40;;
34134;SDS011;20410;55.578;12.968;2022-11-14T00:22:31;1.80;;;1.57;;
34134;SDS011;20410;55.578;12.968;2022-11-14T00:24:56;3.73;;;1.70;;
34134;SDS011;20410;55.578;12.968;2022-11-14T00:27:22;3.03;;;1.60;;
34134;SDS011;20410;55.578;12.968;2022-11-14T00:29:47;4.17;;;1.77;;
34134;SDS011;20410;55.578;12.968;2022-11-14T00:32:13;1.80;;;1.70;;
34134;SDS011;20410;55.578;12.968;2022-11-14T00:34:38;3.10;;;2.17;;
34134;SDS011;20410;55.578;12.968;2022-11-14T00:37:04;3.30;;;2.30;;
34134;SDS011;20410;55.578;12.968;2022-11-14T00:39:30;3.37;;;2.20;;
34134;SDS011;20410;55.578;12.968;2022-11-14T00:41:55;3.87;;;2.20;;
34134;SDS011;20410;55.578;12.968;2022-11-14T00:44:21;2.80;;;2.20;;
34134;SDS011;20410;55.578;12.968;2022-11-14T00:46:46;2.57;;;2.10;;
34134;SDS011;20410;55.578;12.968;2022-11-14T00:49:12;4.33;;;2.50;;
34134;SDS011;20410;55.578;12.968;2022-11-14T00:51:37;3.90;;;2.40;;
34134;SDS011;20410;55.578;12.968;2022-11-14T00:54:03;3.97;;;2.37;;
34134;SDS011;20410;55.578;12.968;2022-11-14T00:56:29;2.93;;;2.10;;
34134;SDS011;20410;55.578;12.968;2022-11-14T00:58:54;3.13;;;2.10;;
34134;SDS011;20410;55.578;12.968;2022-11-14T01:01:20;2.77;;;2.30;;
34134;SDS011;20410;55.578;12.968;2022-11-14T01:03:49;3.03;;;2.00;;
34134;SDS011;20410;55.578;12.968;2022-11-14T01:06:15;3.10;;;2.20;;
34134;SDS011;20410;55.578;12.968;2022-11-14T01:08:42;3.03;;;2.33;;
34134;SDS011;20410;55.578;12.968;2022-11-14T01:11:15;2.67;;;2.47;;
34134;SDS011;20410;55.578;12.968;2022-11-14T01:13:42;4.17;;;2.27;;
34134;SDS011;20410;55.578;12.968;2022-11-14T01:16:08;2.70;;;2.30;;
34134;SDS011;20410;55.578;12.968;2022-11-14T01:18:34;4.10;;;2.50;;
34134;SDS011;20410;55.578;12.968;2022-11-14T01:21:03;2.80;;;2.60;;
34134;SDS011;20410;55.578;12.968;2022-11-14T01:23:31;2.93;;;2.63;;
34134;SDS011;20410;55.578;12.968;2022-11-14T01:26:03;3.13;;;2.67;;
34134;SDS011;20410;55.578;12.968;2022-11-14T01:28:31;2.97;;;2.63;;
34134;SDS011;20410;55.578;12.968;2022-11-14T01:31:05;3.70;;;2.87;;
34134;SDS011;20410;55.578;12.968;2022-11-14T01:33:32;3.80;;;2.60;;
34134;SDS011;20410;55.578;12.968;2022-11-14T01:36:00;2.80;;;2.50;;
34134;SDS011;20410;55.578;12.968;2022-11-14T01:38:26;2.60;;;2.40;;
34134;SDS011;20410;55.578;12.968;2022-11-14T01:40:52;2.60;;;2.40;;
34134;SDS011;20410;55.578;12.968;2022-11-14T01:45:51;3.37;;;2.30;;
34134;SDS011;20410;55.578;12.968;2022-11-14T01:48:19;2.83;;;2.17;;
34134;SDS011;20410;55.578;12.968;2022-11-14T01:50:53;3.17;;;2.30;;
34134;SDS011;20410;55.578;12.968;2022-11-14T01:53:23;3.30;;;2.37;;
34134;SDS011;20410;55.578;12.968;2022-11-14T01:55:49;2.23;;;2.03;;
34134;SDS011;20410;55.578;12.968;2022-11-14T01:58:18;2.60;;;2.20;;
34134;SDS011;20410;55.578;12.968;2022-11-14T02:00:44;2.50;;;2.13;;
34134;SDS011;20410;55.578;12.968;2022-11-14T02:03:10;2.20;;;2.00;;
34134;SDS011;20410;55.578;12.968;2022-11-14T02:05:38;2.77;;;2.50;;
34134;SDS011;20410;55.578;12.968;2022-11-14T02:08:04;2.73;;;2.30;;
34134;SDS011;20410;55.578;12.968;2022-11-14T02:10:31;2.63;;;2.13;;
34134;SDS011;20410;55.578;12.968;2022-11-14T02:12:56;2.93;;;2.10;;
34134;SDS011;20410;55.578;12.968;2022-11-14T02:15:22;2.77;;;2.30;;
34134;SDS011;20410;55.578;12.968;2022-11-14T02:17:48;2.50;;;2.30;;
34134;SDS011;20410;55.578;12.968;2022-11-14T02:20:15;3.83;;;2.60;;
34134;SDS011;20410;55.578;12.968;2022-11-14T02:22:45;4.37;;;3.10;;
34134;SDS011;20410;55.578;12.968;2022-11-14T02:25:11;4.63;;;3.27;;
34134;SDS011;20410;55.578;12.968;2022-11-14T02:27:38;3.33;;;3.03;;
34134;SDS011;20410;55.578;12.968;2022-11-14T02:30:10;3.80;;;3.13;;
34134;SDS011;20410;55.578;12.968;2022-11-14T02:32:41;3.30;;;3.00;;
34134;SDS011;20410;55.578;12.968;2022-11-14T02:35:07;3.10;;;2.80;;
34134;SDS011;20410;55.578;12.968;2022-11-14T02:37:33;2.70;;;2.50;;
34134;SDS011;20410;55.578;12.968;2022-11-14T02:39:58;3.03;;;2.57;;
34134;SDS011;20410;55.578;12.968;2022-11-14T02:42:24;4.00;;;2.80;;
34134;SDS011;20410;55.578;12.968;2022-11-14T02:44:49;3.70;;;2.80;;
34134;SDS011;20410;55.578;12.968;2022-11-14T02:47:15;3.73;;;3.27;;
34134;SDS011;20410;55.578;12.968;2022-11-14T02:49:41;4.70;;;3.17;;
34134;SDS011;20410;55.578;12.968;2022-11-14T02:52:06;3.83;;;3.10;;
34134;SDS011;20410;55.578;12.968;2022-11-14T02:54:32;3.80;;;3.50;;
34134;SDS011;20410;55.578;12.968;2022-11-14T02:56:57;3.40;;;3.10;;
34134;SDS011;20410;55.578;12.968;2022-11-14T02:59:23;3.90;;;3.13;;
34134;SDS011;20410;55.578;12.968;2022-11-14T03:01:49;3.83;;;3.27;;
34134;SDS011;20410;55.578;12.968;2022-11-14T03:04:14;3.73;;;3.33;;
34134;SDS011;20410;55.578;12.968;2022-11-14T03:06:40;3.87;;;3.20;;
34134;SDS011;20410;55.578;12.968;2022-11-14T03:09:05;3.33;;;3.03;;
34134;SDS011;20410;55.578;12.968;2022-11-14T03:11:31;4.97;;;3.50;;
34134;SDS011;20410;55.578;12.968;2022-11-14T03:13:58;3.50;;;3.20;;
34134;SDS011;20410;55.578;12.968;2022-11-14T03:16:23;3.90;;;3.40;;
34134;SDS011;20410;55.578;12.968;2022-11-14T03:18:49;4.53;;;3.50;;
34134;SDS011;20410;55.578;12.968;2022-11-14T03:21:16;4.33;;;3.47;;
34134;SDS011;20410;55.578;12.968;2022-11-14T03:23:43;5.20;;;3.70;;
34134;SDS011;20410;55.578;12.968;2022-11-14T03:26:09;4.20;;;3.80;;
34134;SDS011;20410;55.578;12.968;2022-11-14T03:28:36;4.50;;;3.90;;
34134;SDS011;20410;55.578;12.968;2022-11-14T03:31:02;4.40;;;4.00;;
34134;SDS011;20410;55.578;12.968;2022-11-14T03:33:28;4.43;;;4.03;;
34134;SDS011;20410;55.578;12.968;2022-11-14T03:35:54;4.83;;;4.20;;
34134;SDS011;20410;55.578;12.968;2022-11-14T03:38:19;4.50;;;4.10;;
34134;SDS011;20410;55.578;12.968;2022-11-14T03:40:47;5.20;;;4.27;;
34134;SDS011;20410;55.578;12.968;2022-11-14T03:43:14;4.77;;;4.27;;
34134;SDS011;20410;55.578;12.968;2022-11-14T03:45:40;7.43;;;5.43;;
34134;SDS011;20410;55.578;12.968;2022-11-14T03:48:05;5.83;;;5.20;;
34134;SDS011;20410;55.578;12.968;2022-11-14T03:50:31;7.30;;;5.53;;
34134;SDS011;20410;55.578;12.968;2022-11-14T03:52:57;7.03;;;5.40;;
34134;SDS011;20410;55.578;12.968;2022-11-14T03:55:22;6.63;;;5.93;;
34134;SDS011;20410;55.578;12.968;2022-11-14T03:57:48;6.87;;;5.57;;
34134;SDS011;20410;55.578;12.968;2022-11-14T04:00:14;6.93;;;5.97;;
34134;SDS011;20410;55.578;12.968;2022-11-14T04:02:40;8.30;;;6.13;;
34134;SDS011;20410;55.578;12.968;2022-11-14T04:05:05;6.80;;;6.10;;
34134;SDS011;20410;55.578;12.968;2022-11-14T04:07:31;7.00;;;6.20;;
34134;SDS011;20410;55.578;12.968;2022-11-14T04:09:57;8.03;;;6.80;;
34134;SDS011;20410;55.578;12.968;2022-11-14T04:12:22;7.70;;;6.33;;
34134;SDS011;20410;55.578;12.968;2022-11-14T04:14:48;7.47;;;6.40;;
34134;SDS011;20410;55.578;12.968;2022-11-14T04:17:13;8.07;;;7.27;;
34134;SDS011;20410;55.578;12.968;2022-11-14T04:19:39;8.80;;;7.00;;
34134;SDS011;20410;55.578;12.968;2022-11-14T04:22:04;8.77;;;7.53;;
34134;SDS011;20410;55.578;12.968;2022-11-14T04:24:30;8.93;;;7.37;;
34134;SDS011;20410;55.578;12.968;2022-11-14T04:26:56;9.00;;;7.50;;
34134;SDS011;20410;55.578;12.968;2022-11-14T04:29:21;9.80;;;7.70;;
34134;SDS011;20410;55.578;12.968;2022-11-14T04:31:47;8.87;;;7.97;;
34134;SDS011;20410;55.578;12.968;2022-11-14T04:34:13;8.87;;;7.97;;
34134;SDS011;20410;55.578;12.968;2022-11-14T04:36:38;10.53;;;8.67;;
34134;SDS011;20410;55.578;12.968;2022-11-14T04:39:04;9.17;;;8.27;;
34134;SDS011;20410;55.578;12.968;2022-11-14T04:41:29;9.43;;;8.27;;
34134;SDS011;20410;55.578;12.968;2022-11-14T04:43:55;8.80;;;7.90;;
34134;SDS011;20410;55.578;12.968;2022-11-14T04:46:21;9.23;;;8.23;;
34134;SDS011;20410;55.578;12.968;2022-11-14T04:48:46;8.70;;;7.80;;
34134;SDS011;20410;55.578;12.968;2022-11-14T04:51:12;8.90;;;8.00;;
34134;SDS011;20410;55.578;12.968;2022-11-14T04:53:37;8.77;;;7.73;;
34134;SDS011;20410;55.578;12.968;2022-11-14T04:56:03;9.27;;;8.37;;
34134;SDS011;20410;55.578;12.968;2022-11-14T04:58:29;8.67;;;7.77;;
34134;SDS011;20410;55.578;12.968;2022-11-14T05:00:54;10.37;;;8.83;;
34134;SDS011;20410;55.578;12.968;2022-11-14T05:03:21;9.83;;;8.30;;
34134;SDS011;20410;55.578;12.968;2022-11-14T05:05:47;9.57;;;8.33;;
34134;SDS011;20410;55.578;12.968;2022-11-14T05:08:13;9.13;;;8.23;;
34134;SDS011;20410;55.578;12.968;2022-11-14T05:10:41;9.03;;;8.13;;
34134;SDS011;20410;55.578;12.968;2022-11-14T05:13:08;11.43;;;9.47;;
34134;SDS011;20410;55.578;12.968;2022-11-14T05:15:34;10.83;;;9.73;;
34134;SDS011;20410;55.578;12.968;2022-11-14T05:18:00;10.93;;;8.97;;
34134;SDS011;20410;55.578;12.968;2022-11-14T05:20:26;11.33;;;9.53;;
34134;SDS011;20410;55.578;12.968;2022-11-14T05:22:52;11.73;;;9.90;;
34134;SDS011;20410;55.578;12.968;2022-11-14T05:25:19;13.10;;;10.90;;
34134;SDS011;20410;55.578;12.968;2022-11-14T05:27:45;11.17;;;9.97;;
34134;SDS011;20410;55.578;12.968;2022-11-14T05:30:11;12.13;;;9.90;;
34134;SDS011;20410;55.578;12.968;2022-11-14T05:32:37;11.93;;;10.17;;
34134;SDS011;20410;55.578;12.968;2022-11-14T05:35:03;15.47;;;11.33;;
34134;SDS011;20410;55.578;12.968;2022-11-14T05:37:28;15.33;;;11.90;;
34134;SDS011;20410;55.578;12.968;2022-11-14T05:39:54;12.87;;;11.13;;
34134;SDS011;20410;55.578;12.968;2022-11-14T05:42:20;15.93;;;12.37;;
34134;SDS011;20410;55.578;12.968;2022-11-14T05:44:45;16.00;;;12.63;;
34134;SDS011;20410;55.578;12.968;2022-11-14T05:47:11;14.87;;;11.70;;
34134;SDS011;20410;55.578;12.968;2022-11-14T05:49:36;14.17;;;10.33;;
34134;SDS011;20410;55.578;12.968;2022-11-14T05:52:02;11.27;;;10.17;;
34134;SDS011;20410;55.578;12.968;2022-11-14T05:54:28;10.67;;;9.40;;
34134;SDS011;20410;55.578;12.968;2022-11-14T05:56:53;12.07;;;9.07;;
34134;SDS011;20410;55.578;12.968;2022-11-14T05:59:19;10.77;;;9.10;;
34134;SDS011;20410;55.578;12.968;2022-11-14T06:01:44;11.47;;;10.27;;
34134;SDS011;20410;55.578;12.968;2022-11-14T06:04:10;12.20;;;10.90;;
34134;SDS011;20410;55.578;12.968;2022-11-14T06:06:38;13.03;;;11.30;;
34134;SDS011;20410;55.578;12.968;2022-11-14T06:09:04;13.73;;;11.80;;
34134;SDS011;20410;55.578;12.968;2022-11-14T06:11:30;15.67;;;12.43;;
34134;SDS011;20410;55.578;12.968;2022-11-14T06:13:55;14.93;;;12.37;;
34134;SDS011;20410;55.578;12.968;2022-11-14T06:16:21;14.93;;;12.50;;
34134;SDS011;20410;55.578;12.968;2022-11-14T06:18:48;15.00;;;12.67;;
34134;SDS011;20410;55.578;12.968;2022-11-14T06:21:17;16.23;;;12.70;;
34134;SDS011;20410;55.578;12.968;2022-11-14T06:23:44;14.13;;;12.30;;
34134;SDS011;20410;55.578;12.968;2022-11-14T06:26:18;15.60;;;12.80;;
34134;SDS011;20410;55.578;12.968;2022-11-14T06:28:46;17.97;;;13.97;;
34134;SDS011;20410;55.578;12.968;2022-11-14T06:31:13;16.10;;;12.87;;
34134;SDS011;20410;55.578;12.968;2022-11-14T06:33:39;16.53;;;13.63;;
34134;SDS011;20410;55.578;12.968;2022-11-14T06:36:05;16.07;;;13.80;;
34134;SDS011;20410;55.578;12.968;2022-11-14T06:38:32;17.03;;;13.67;;
34134;SDS011;20410;55.578;12.968;2022-11-14T06:41:06;16.73;;;13.93;;
34134;SDS011;20410;55.578;12.968;2022-11-14T06:43:39;13.97;;;12.57;;
34134;SDS011;20410;55.578;12.968;2022-11-14T06:46:07;13.40;;;11.73;;
34134;SDS011;20410;55.578;12.968;2022-11-14T06:48:35;13.73;;;12.13;;
34134;SDS011;20410;55.578;12.968;2022-11-14T06:51:01;16.33;;;12.13;;
34134;SDS011;20410;55.578;12.968;2022-11-14T06:53:28;14.80;;;12.17;;
34134;SDS011;20410;55.578;12.968;2022-11-14T06:56:28;13.50;;;12.07;;
34134;SDS011;20410;55.578;12.968;2022-11-14T06:58:47;14.50;;;12.17;;
34134;SDS011;20410;55.578;12.968;2022-11-14T07:03:41;13.73;;;11.77;;
34134;SDS011;20410;55.578;12.968;2022-11-14T07:06:08;14.00;;;12.47;;
34134;SDS011;20410;55.578;12.968;2022-11-14T07:08:36;14.33;;;12.20;;
34134;SDS011;20410;55.578;12.968;2022-11-14T07:11:02;14.67;;;12.63;;
34134;SDS011;20410;55.578;12.968;2022-11-14T07:13:29;13.47;;;11.83;;
34134;SDS011;20410;55.578;12.968;2022-11-14T07:15:55;13.57;;;12.17;;
34134;SDS011;20410;55.578;12.968;2022-11-14T07:18:21;14.30;;;12.80;;
34134;SDS011;20410;55.578;12.968;2022-11-14T07:20:47;12.37;;;11.10;;
34134;SDS011;20410;55.578;12.968;2022-11-14T07:23:13;13.20;;;11.67;;
34134;SDS011;20410;55.578;12.968;2022-11-14T07:25:39;13.23;;;10.87;;
34134;SDS011;20410;55.578;12.968;2022-11-14T07:28:05;12.80;;;11.40;;
34134;SDS011;20410;55.578;12.968;2022-11-14T07:30:31;12.13;;;10.83;;
34134;SDS011;20410;55.578;12.968;2022-11-14T07:32:57;13.57;;;11.53;;
34134;SDS011;20410;55.578;12.968;2022-11-14T07:35:23;14.33;;;12.80;;
34134;SDS011;20410;55.578;12.968;2022-11-14T07:37:50;14.20;;;12.70;;
34134;SDS011;20410;55.578;12.968;2022-11-14T07:40:15;14.37;;;12.40;;
34134;SDS011;20410;55.578;12.968;2022-11-14T07:42:42;14.17;;;11.87;;
34134;SDS011;20410;55.578;12.968;2022-11-14T07:45:07;13.53;;;11.57;;
34134;SDS011;20410;55.578;12.968;2022-11-14T07:47:34;14.07;;;11.50;;
34134;SDS011;20410;55.578;12.968;2022-11-14T07:49:59;13.37;;;11.43;;
34134;SDS011;20410;55.578;12.968;2022-11-14T07:52:25;12.63;;;11.20;;
34134;SDS011;20410;55.578;12.968;2022-11-14T07:54:51;12.90;;;11.60;;
34134;SDS011;20410;55.578;12.968;2022-11-14T07:57:16;13.63;;;12.23;;
34134;SDS011;20410;55.578;12.968;2022-11-14T07:59:42;12.73;;;11.43;;
34134;SDS011;20410;55.578;12.968;2022-11-14T08:02:11;12.13;;;10.90;;
34134;SDS011;20410;55.578;12.968;2022-11-14T08:04:39;11.13;;;9.63;;
34134;SDS011;20410;55.578;12.968;2022-11-14T08:07:05;11.17;;;9.97;;
34134;SDS011;20410;55.578;12.968;2022-11-14T08:09:30;11.00;;;9.70;;
34134;SDS011;20410;55.578;12.968;2022-11-14T08:11:56;10.83;;;9.73;;
34134;SDS011;20410;55.578;12.968;2022-11-14T08:14:21;11.93;;;10.67;;
34134;SDS011;20410;55.578;12.968;2022-11-14T08:16:47;11.93;;;10.73;;
34134;SDS011;20410;55.578;12.968;2022-11-14T08:19:14;12.27;;;10.97;;
34134;SDS011;20410;55.578;12.968;2022-11-14T08:21:40;12.93;;;11.53;;
34134;SDS011;20410;55.578;12.968;2022-11-14T08:24:06;13.73;;;11.93;;
34134;SDS011;20410;55.578;12.968;2022-11-14T08:26:32;13.77;;;12.23;;
34134;SDS011;20410;55.578;12.968;2022-11-14T08:28:58;15.57;;;13.33;;
34134;SDS011;20410;55.578;12.968;2022-11-14T08:31:23;16.10;;;13.23;;
34134;SDS011;20410;55.578;12.968;2022-11-14T08:33:50;16.73;;;12.47;;
34134;SDS011;20410;55.578;12.968;2022-11-14T08:36:16;15.37;;;12.20;;
34134;SDS011;20410;55.578;12.968;2022-11-14T08:38:41;14.40;;;12.27;;
34134;SDS011;20410;55.578;12.968;2022-11-14T08:41:07;15.07;;;12.63;;
34134;SDS011;20410;55.578;12.968;2022-11-14T08:43:33;17.63;;;14.40;;
34134;SDS011;20410;55.578;12.968;2022-11-14T08:45:59;16.23;;;13.47;;
34134;SDS011;20410;55.578;12.968;2022-11-14T08:48:25;13.97;;;12.30;;
34134;SDS011;20410;55.578;12.968;2022-11-14T08:50:51;13.50;;;11.47;;
34134;SDS011;20410;55.578;12.968;2022-11-14T08:53:17;17.73;;;12.50;;
34134;SDS011;20410;55.578;12.968;2022-11-14T08:55:46;14.27;;;12.17;;
34134;SDS011;20410;55.578;12.968;2022-11-14T08:58:12;12.07;;;10.43;;
34134;SDS011;20410;55.578;12.968;2022-11-14T09:00:38;11.07;;;9.87;;
34134;SDS011;20410;55.578;12.968;2022-11-14T09:03:07;12.37;;;10.73;;
34134;SDS011;20410;55.578;12.968;2022-11-14T09:05:34;11.77;;;10.57;;
34134;SDS011;20410;55.578;12.968;2022-11-14T09:08:01;12.80;;;10.23;;
34134;SDS011;20410;55.578;12.968;2022-11-14T09:10:27;11.37;;;9.30;;
34134;SDS011;20410;55.578;12.968;2022-11-14T09:12:59;10.00;;;8.90;;
34134;SDS011;20410;55.578;12.968;2022-11-14T09:15:26;11.20;;;9.60;;
34134;SDS011;20410;55.578;12.968;2022-11-14T09:17:53;9.77;;;8.77;;
34134;SDS011;20410;55.578;12.968;2022-11-14T09:20:19;10.93;;;8.90;;
34134;SDS011;20410;55.578;12.968;2022-11-14T09:22:45;9.63;;;8.60;;
34134;SDS011;20410;55.578;12.968;2022-11-14T09:25:11;9.90;;;8.90;;
34134;SDS011;20410;55.578;12.968;2022-11-14T09:27:36;12.37;;;10.30;;
34134;SDS011;20410;55.578;12.968;2022-11-14T09:30:02;9.87;;;8.87;;
34134;SDS011;20410;55.578;12.968;2022-11-14T09:32:28;12.03;;;9.83;;
34134;SDS011;20410;55.578;12.968;2022-11-14T09:34:54;10.87;;;9.57;;
34134;SDS011;20410;55.578;12.968;2022-11-14T09:37:19;10.40;;;9.13;;
34134;SDS011;20410;55.578;12.968;2022-11-14T09:39:45;12.20;;;10.40;;
34134;SDS011;20410;55.578;12.968;2022-11-14T09:45:14;10.53;;;9.43;;
34134;SDS011;20410;55.578;12.968;2022-11-14T09:47:47;10.90;;;9.00;;
34134;SDS011;20410;55.578;12.968;2022-11-14T09:50:18;10.03;;;8.93;;
34134;SDS011;20410;55.578;12.968;2022-11-14T09:52:51;10.07;;;8.87;;
34134;SDS011;20410;55.578;12.968;2022-11-14T09:55:29;9.47;;;8.50;;
34134;SDS011;20410;55.578;12.968;2022-11-14T09:57:56;9.23;;;8.23;;
34134;SDS011;20410;55.578;12.968;2022-11-14T10:00:22;9.40;;;7.90;;
34134;SDS011;20410;55.578;12.968;2022-11-14T10:14:07;7.83;;;7.03;;
34134;SDS011;20410;55.578;12.968;2022-11-14T10:19:21;8.77;;;7.40;;
34134;SDS011;20410;55.578;12.968;2022-11-14T10:21:57;7.90;;;7.10;;
34134;SDS011;20410;55.578;12.968;2022-11-14T10:27:24;8.57;;;7.67;;
34134;SDS011;20410;55.578;12.968;2022-11-14T10:33:00;8.87;;;7.97;;
34134;SDS011;20410;55.578;12.968;2022-11-14T10:38:15;9.00;;;7.43;;
34134;SDS011;20410;55.578;12.968;2022-11-14T10:41:00;10.50;;;7.40;;
34134;SDS011;20410;55.578;12.968;2022-11-14T10:46:04;8.07;;;7.27;;
34134;SDS011;20410;55.578;12.968;2022-11-14T10:48:44;8.10;;;6.90;;
34134;SDS011;20410;55.578;12.968;2022-11-14T10:51:14;8.03;;;7.23;;
34134;SDS011;20410;55.578;12.968;2022-11-14T10:56:31;8.63;;;6.80;;
34134;SDS011;20410;55.578;12.968;2022-11-14T10:58:56;8.00;;;6.90;;
34134;SDS011;20410;55.578;12.968;2022-11-14T11:01:39;8.53;;;7.17;;
34134;SDS011;20410;55.578;12.968;2022-11-14T11:09:33;8.40;;;7.37;;
34134;SDS011;20410;55.578;12.968;2022-11-14T11:12:20;11.00;;;8.40;;
34134;SDS011;20410;55.578;12.968;2022-11-14T11:14:48;9.10;;;7.57;;
34134;SDS011;20410;55.578;12.968;2022-11-14T11:17:32;9.00;;;7.07;;
34134;SDS011;20410;55.578;12.968;2022-11-14T11:20:19;9.23;;;7.17;;
34134;SDS011;20410;55.578;12.968;2022-11-14T11:22:50;9.47;;;7.50;;
34134;SDS011;20410;55.578;12.968;2022-11-14T11:25:30;8.60;;;7.40;;
34134;SDS011;20410;55.578;12.968;2022-11-14T11:28:20;9.23;;;7.37;;
34134;SDS011;20410;55.578;12.968;2022-11-14T11:30:53;7.93;;;7.10;;
34134;SDS011;20410;55.578;12.968;2022-11-14T11:35:52;9.07;;;7.43;;
34134;SDS011;20410;55.578;12.968;2022-11-14T11:38:22;8.77;;;7.70;;
34134;SDS011;20410;55.578;12.968;2022-11-14T11:40:50;8.60;;;7.70;;
34134;SDS011;20410;55.578;12.968;2022-11-14T11:43:24;8.33;;;7.50;;
34134;SDS011;20410;55.578;12.968;2022-11-14T11:45:51;9.40;;;7.77;;
34134;SDS011;20410;55.578;12.968;2022-11-14T11:48:23;8.87;;;7.30;;
34134;SDS011;20410;55.578;12.968;2022-11-14T11:50:56;8.97;;;7.20;;
34134;SDS011;20410;55.578;12.968;2022-11-14T11:56:08;10.33;;;7.27;;
34134;SDS011;20410;55.578;12.968;2022-11-14T12:01:31;11.47;;;8.03;;
34134;SDS011;20410;55.578;12.968;2022-11-14T12:03:57;11.73;;;8.47;;
34134;SDS011;20410;55.578;12.968;2022-11-14T12:06:24;9.10;;;7.13;;
34134;SDS011;20410;55.578;12.968;2022-11-14T12:09:01;9.80;;;8.10;;
34134;SDS011;20410;55.578;12.968;2022-11-14T12:11:39;10.00;;;7.50;;
34134;SDS011;20410;55.578;12.968;2022-11-14T12:14:17;9.37;;;7.60;;
34134;SDS011;20410;55.578;12.968;2022-11-14T12:30:45;11.43;;;8.73;;
34134;SDS011;20410;55.578;12.968;2022-11-14T12:35:52;8.10;;;7.30;;
34134;SDS011;20410;55.578;12.968;2022-11-14T12:38:21;9.73;;;8.73;;
34134;SDS011;20410;55.578;12.968;2022-11-14T12:40:54;11.00;;;9.80;;
34134;SDS011;20410;55.578;12.968;2022-11-14T12:43:27;10.63;;;8.90;;
34134;SDS011;20410;55.578;12.968;2022-11-14T12:45:58;9.83;;;8.83;;
34134;SDS011;20410;55.578;12.968;2022-11-14T12:50:55;9.67;;;8.63;;
34134;SDS011;20410;55.578;12.968;2022-11-14T13:06:23;9.00;;;8.10;;
34134;SDS011;20410;55.578;12.968;2022-11-14T13:11:50;8.53;;;7.73;;
34134;SDS011;20410;55.578;12.968;2022-11-14T13:14:48;9.00;;;7.50;;
34134;SDS011;20410;55.578;12.968;2022-11-14T13:17:32;8.77;;;7.87;;
34134;SDS011;20410;55.578;12.968;2022-11-14T13:23:04;9.17;;;7.90;;
34134;SDS011;20410;55.578;12.968;2022-11-14T13:33:58;9.90;;;8.90;;
34134;SDS011;20410;55.578;12.968;2022-11-14T13:39:01;9.17;;;8.27;;
34134;SDS011;20410;55.578;12.968;2022-11-14T13:44:35;9.07;;;8.10;;
34134;SDS011;20410;55.578;12.968;2022-11-14T13:50:18;8.87;;;7.80;;
34134;SDS011;20410;55.578;12.968;2022-11-14T13:52:51;8.10;;;7.30;;
34134;SDS011;20410;55.578;12.968;2022-11-14T13:55:44;13.70;;;8.20;;
34134;SDS011;20410;55.578;12.968;2022-11-14T13:58:21;9.27;;;7.67;;
34134;SDS011;20410;55.578;12.968;2022-11-14T14:01:20;11.20;;;8.30;;
34134;SDS011;20410;55.578;12.968;2022-11-14T14:09:27;9.20;;;8.20;;
34134;SDS011;20410;55.578;12.968;2022-11-14T14:12:01;8.53;;;7.70;;
34134;SDS011;20410;55.578;12.968;2022-11-14T14:14:48;7.90;;;7.20;;
34134;SDS011;20410;55.578;12.968;2022-11-14T14:17:35;7.57;;;6.70;;
34134;SDS011;20410;55.578;12.968;2022-11-14T14:22:50;7.57;;;6.03;;
34134;SDS011;20410;55.578;12.968;2022-11-14T14:25:44;6.47;;;5.87;;
34134;SDS011;20410;55.578;12.968;2022-11-14T14:31:03;6.70;;;6.10;;
34134;SDS011;20410;55.578;12.968;2022-11-14T14:33:44;6.30;;;5.70;;
34134;SDS011;20410;55.578;12.968;2022-11-14T14:36:29;9.07;;;6.20;;
34134;SDS011;20410;55.578;12.968;2022-11-14T14:41:51;7.07;;;6.40;;
34134;SDS011;20410;55.578;12.968;2022-11-14T14:46:53;6.57;;;5.97;;
34134;SDS011;20410;55.578;12.968;2022-11-14T14:49:21;6.47;;;5.83;;
34134;SDS011;20410;55.578;12.968;2022-11-14T14:51:59;6.90;;;6.20;;
34134;SDS011;20410;55.578;12.968;2022-11-14T14:54:26;7.10;;;6.23;;
34134;SDS011;20410;55.578;12.968;2022-11-14T14:56:59;8.50;;;6.40;;
34134;SDS011;20410;55.578;12.968;2022-11-14T14:59:27;7.83;;;6.30;;
34134;SDS011;20410;55.578;12.968;2022-11-14T15:01:54;7.50;;;6.30;;
34134;SDS011;20410;55.578;12.968;2022-11-14T15:04:22;6.73;;;6.03;;
34134;SDS011;20410;55.578;12.968;2022-11-14T15:06:50;6.83;;;6.13;;
34134;SDS011;20410;55.578;12.968;2022-11-14T15:09:18;6.90;;;6.20;;
34134;SDS011;20410;55.578;12.968;2022-11-14T15:11:52;6.53;;;5.93;;
34134;SDS011;20410;55.578;12.968;2022-11-14T15:14:24;7.20;;;6.50;;
34134;SDS011;20410;55.578;12.968;2022-11-14T15:16:55;8.00;;;6.57;;
34134;SDS011;20410;55.578;12.968;2022-11-14T15:19:23;8.13;;;7.03;;
34134;SDS011;20410;55.578;12.968;2022-11-14T15:22:26;8.33;;;7.10;;
34134;SDS011;20410;55.578;12.968;2022-11-14T15:27:44;8.00;;;7.20;;
34134;SDS011;20410;55.578;12.968;2022-11-14T15:30:33;10.40;;;8.00;;
34134;SDS011;20410;55.578;12.968;2022-11-14T15:33:01;9.40;;;7.33;;
34134;SDS011;20410;55.578;12.968;2022-11-14T15:35:35;8.40;;;7.60;;
34134;SDS011;20410;55.578;12.968;2022-11-14T15:38:03;8.43;;;7.17;;
34134;SDS011;20410;55.578;12.968;2022-11-14T15:40:36;8.30;;;7.50;;
34134;SDS011;20410;55.578;12.968;2022-11-14T15:49:00;8.27;;;7.47;;
34134;SDS011;20410;55.578;12.968;2022-11-14T15:51:38;8.33;;;7.50;;
34134;SDS011;20410;55.578;12.968;2022-11-14T15:54:23;9.20;;;7.47;;
34134;SDS011;20410;55.578;12.968;2022-11-14T15:56:54;8.57;;;7.73;;
34134;SDS011;20410;55.578;12.968;2022-11-14T15:59:22;7.77;;;7.03;;
34134;SDS011;20410;55.578;12.968;2022-11-14T16:01:49;8.17;;;7.37;;
34134;SDS011;20410;55.578;12.968;2022-11-14T16:04:19;8.27;;;7.47;;
34134;SDS011;20410;55.578;12.968;2022-11-14T16:06:47;9.33;;;8.33;;
34134;SDS011;20410;55.578;12.968;2022-11-14T16:09:13;8.00;;;7.20;;
34134;SDS011;20410;55.578;12.968;2022-11-14T16:11:41;8.80;;;8.00;;
34134;SDS011;20410;55.578;12.968;2022-11-14T16:14:07;8.63;;;7.73;;
34134;SDS011;20410;55.578;12.968;2022-11-14T16:16:32;8.77;;;7.87;;
34134;SDS011;20410;55.578;12.968;2022-11-14T16:18:58;8.90;;;7.60;;
34134;SDS011;20410;55.578;12.968;2022-11-14T16:21:24;9.07;;;8.23;;
34134;SDS011;20410;55.578;12.968;2022-11-14T16:23:49;8.30;;;7.50;;
34134;SDS011;20410;55.578;12.968;2022-11-14T16:26:15;9.00;;;8.10;;
34134;SDS011;20410;55.578;12.968;2022-11-14T16:28:40;8.67;;;7.87;;
34134;SDS011;20410;55.578;12.968;2022-11-14T16:31:12;8.90;;;8.00;;
34134;SDS011;20410;55.578;12.968;2022-11-14T16:33:39;9.90;;;8.17;;
34134;SDS011;20410;55.578;12.968;2022-11-14T16:36:05;9.70;;;8.70;;
34134;SDS011;20410;55.578;12.968;2022-11-14T16:38:30;9.53;;;8.50;;
34134;SDS011;20410;55.578;12.968;2022-11-14T16:40:56;10.33;;;9.10;;
34134;SDS011;20410;55.578;12.968;2022-11-14T16:43:24;10.37;;;9.37;;